Time;durP1;ratioP1;P1;durP2;ratioP2;P2;SDS_P1;SDS_P2;PMS_P1;PMS_P2;Temp;Humidity;BMP_temperature;BMP_pressure;BME280_temperature;BME280_humidity;BME280_pressure;Samples;Min_cycle;Max_cycle;Signal;HPM_P1;HPM_P2
2023/09/24 00:01:49;;;;;;;31.70;18.73;;;;;;;-144.73;100.00;54539.06;5033262;28;20064;-75
2023/09/24 00:04:14;;;;;;;25.98;18.05;;;;;;;-144.73;100.00;54539.06;5038193;28;20040;-75
2023/09/24 00:06:40;;;;;;;23.85;16.20;;;;;;;-144.73;100.00;54514.44;5056305;28;20031;-75
2023/09/24 00:09:06;;;;;;;28.70;18.73;;;;;;;-144.73;100.00;54559.59;5033613;28;20041;-75
2023/09/24 00:11:31;;;;;;;38.30;20.20;;;;;;;-144.73;100.00;54506.22;5033073;28;20494;-75
2023/09/24 00:13:57;;;;;;;27.90;18.35;;;;;;;-144.73;100.00;54498.00;5037730;28;20040;-75
2023/09/24 00:16:22;;;;;;;33.00;18.88;;;;;;;-144.73;100.00;54522.63;5031697;28;20037;-75
2023/09/24 00:18:48;;;;;;;30.77;18.60;;;;;;;-144.73;100.00;54547.28;5032262;28;20029;-75
2023/09/24 00:21:14;;;;;;;35.65;18.27;;;;;;;-144.73;100.00;54514.44;5034587;28;20499;-75
2023/09/24 00:23:39;;;;;;;32.83;18.75;;;;;;;-144.73;100.00;54518.53;5032227;28;20021;-75
2023/09/24 00:26:05;;;;;;;35.28;18.50;;;;;;;-144.73;100.00;54506.22;5055011;28;20013;-75
2023/09/24 00:28:31;;;;;;;30.77;18.15;;;;;;;-144.73;100.00;54543.16;5033672;28;20028;-74
2023/09/24 00:30:58;;;;;;;23.35;16.27;;;;;;;-144.73;100.00;54539.06;5059978;28;20031;-74
2023/09/24 00:33:24;;;;;;;30.17;17.85;;;;;;;-144.73;100.00;54510.31;5032515;28;20104;-74
2023/09/24 00:35:50;;;;;;;29.63;18.00;;;;;;;-144.73;100.00;54514.44;5059933;28;20117;-75
2023/09/24 00:38:16;;;;;;;27.48;16.95;;;;;;;-144.73;100.00;54506.22;5037414;28;20045;-74
2023/09/24 00:40:42;;;;;;;26.83;16.13;;;;;;;-144.73;100.00;54580.13;5040740;28;20051;-75
2023/09/24 00:43:27;;;;;;;28.00;17.60;;;;;;;-144.73;100.00;54477.47;5035535;28;20033;-75
2023/09/24 00:45:53;;;;;;;34.10;17.40;;;;;;;-144.73;100.00;54569.84;5054917;28;20029;-75
2023/09/24 00:48:20;;;;;;;23.23;15.48;;;;;;;-144.73;100.00;54571.91;5032056;28;20987;-75
2023/09/24 00:50:46;;;;;;;29.40;15.02;;;;;;;-144.73;100.00;54522.63;5053851;28;20032;-75
2023/09/24 00:53:11;;;;;;;26.42;16.55;;;;;;;-144.73;100.00;54516.47;5040628;28;20040;-75
2023/09/24 00:55:38;;;;;;;25.58;16.23;;;;;;;-144.73;100.00;54539.06;5034861;28;20025;-75
2023/09/24 00:58:03;;;;;;;24.08;14.82;;;;;;;-144.73;100.00;54563.69;5060748;28;20059;-75
2023/09/24 01:00:34;;;;;;;28.85;15.65;;;;;;;-144.73;100.00;54522.63;5034356;28;20045;-74
2023/09/24 01:03:00;;;;;;;25.85;14.98;;;;;;;-144.73;100.00;54553.44;5035698;28;20036;-75
2023/09/24 01:05:27;;;;;;;21.52;14.60;;;;;;;-144.73;100.00;54547.28;5051706;28;20055;-74
2023/09/24 01:07:53;;;;;;;28.45;15.20;;;;;;;-144.73;100.00;54549.31;5040435;28;20044;-75
2023/09/24 01:10:23;;;;;;;28.60;14.63;;;;;;;-144.73;100.00;54549.31;5055286;28;20057;-75
2023/09/24 01:12:59;;;;;;;28.55;14.98;;;;;;;-144.73;100.00;54555.47;5045660;28;20028;-75
2023/09/24 01:15:25;;;;;;;29.13;15.80;;;;;;;-144.73;100.00;54547.28;5033848;28;20033;-75
2023/09/24 01:17:52;;;;;;;28.42;15.60;;;;;;;-144.73;100.00;54555.47;5053272;28;20110;-75
2023/09/24 01:20:21;;;;;;;32.97;14.88;;;;;;;-144.73;100.00;54485.69;5037404;28;20507;-75
2023/09/24 01:22:47;;;;;;;26.30;15.00;;;;;;;-144.73;100.00;54543.16;5045207;28;20025;-75
2023/09/24 01:25:12;;;;;;;26.65;16.25;;;;;;;-144.73;100.00;54567.81;5032852;28;20120;-75
2023/09/24 01:27:37;;;;;;;19.55;13.88;;;;;;;-144.73;100.00;54604.75;5035711;28;20036;-75
2023/09/24 01:30:06;;;;;;;21.95;14.10;;;;;;;-144.73;100.00;54539.06;5062313;28;20033;-75
2023/09/24 01:32:32;;;;;;;32.67;17.33;;;;;;;-144.73;100.00;54506.22;5035691;28;20035;-75
2023/09/24 01:34:58;;;;;;;27.02;16.88;;;;;;;-144.73;100.00;54518.53;5037345;28;20059;-75
2023/09/24 01:37:23;;;;;;;32.95;16.00;;;;;;;-144.73;100.00;54561.63;5061027;28;20025;-70
2023/09/24 01:39:51;;;;;;;16.45;12.43;;;;;;;-144.73;100.00;54522.63;5051600;28;20029;-70
2023/09/24 01:42:16;;;;;;;22.33;14.63;;;;;;;-144.73;100.00;54506.22;5056656;28;20020;-70
2023/09/24 01:44:42;;;;;;;23.15;16.10;;;;;;;-144.73;100.00;54547.28;5072930;28;20037;-70
2023/09/24 01:47:07;;;;;;;25.70;15.82;;;;;;;-144.73;100.00;54526.75;5073389;28;20031;-70
2023/09/24 01:49:34;;;;;;;22.63;13.98;;;;;;;-144.73;100.00;54528.81;5072785;28;20028;-70
2023/09/24 01:51:59;;;;;;;22.10;13.05;;;;;;;-144.73;100.00;54580.13;5074344;28;20056;-70
2023/09/24 01:54:25;;;;;;;23.33;14.38;;;;;;;-144.73;100.00;54506.22;5056006;28;20052;-70
2023/09/24 01:56:50;;;;;;;18.38;12.63;;;;;;;-144.73;100.00;54512.38;5074649;28;20024;-70
2023/09/24 01:59:16;;;;;;;24.05;14.20;;;;;;;-144.73;100.00;54551.38;5056269;28;20028;-70
2023/09/24 02:01:44;;;;;;;24.25;14.07;;;;;;;-144.73;100.00;54604.75;5056552;28;20032;-70
2023/09/24 02:04:10;;;;;;;26.00;14.20;;;;;;;-144.73;100.00;54528.81;5055887;28;20021;-70
2023/09/24 02:06:35;;;;;;;35.58;18.05;;;;;;;-144.73;100.00;54555.47;5056871;28;20070;-70
2023/09/24 02:09:01;;;;;;;35.40;17.60;;;;;;;-144.73;100.00;54493.91;5074382;28;20036;-69
2023/09/24 02:11:27;;;;;;;29.05;15.73;;;;;;;-144.73;100.00;54514.44;5056391;28;20035;-70
2023/09/24 02:13:53;;;;;;;30.05;17.35;;;;;;;-144.73;100.00;54539.06;5072622;28;20020;-70
2023/09/24 02:16:19;;;;;;;33.03;18.42;;;;;;;-144.73;100.00;54545.22;5074052;28;20032;-69
2023/09/24 02:18:44;;;;;;;42.38;24.10;;;;;;;-144.73;100.00;54547.28;5073708;28;20028;-70
2023/09/24 02:21:14;;;;;;;42.17;20.65;;;;;;;-144.73;100.00;54559.59;5056171;28;20025;-70
2023/09/24 02:23:41;;;;;;;31.45;18.75;;;;;;;-144.73;100.00;54563.69;5072952;28;20027;-70
2023/09/24 02:26:09;;;;;;;33.70;15.80;;;;;;;-144.73;100.00;54539.06;5055978;28;20063;-70
2023/09/24 02:28:38;;;;;;;30.90;17.08;;;;;;;-144.73;100.00;54573.97;5074126;28;20024;-70
2023/09/24 02:31:07;;;;;;;29.38;16.52;;;;;;;-144.73;100.00;54563.69;5055210;28;20147;-70
2023/09/24 02:33:34;;;;;;;33.00;15.77;;;;;;;-144.73;100.00;54559.59;5073708;28;20055;-70
2023/09/24 02:35:59;;;;;;;35.63;20.73;;;;;;;-144.73;100.00;54559.59;5073001;28;20082;-69
2023/09/24 02:38:25;;;;;;;41.35;22.65;;;;;;;-144.73;100.00;54567.81;5071580;28;20461;-70
2023/09/24 02:40:51;;;;;;;36.05;21.40;;;;;;;-144.73;100.00;54561.63;5053085;28;20041;-70
2023/09/24 02:43:16;;;;;;;27.65;18.42;;;;;;;-144.73;100.00;54518.53;5052727;28;20116;-69
2023/09/24 02:45:42;;;;;;;19.92;13.10;;;;;;;-144.73;100.00;54522.63;5053160;28;20042;-70
2023/09/24 02:48:07;;;;;;;29.88;16.20;;;;;;;-144.73;100.00;54559.59;5052038;28;20025;-70
2023/09/24 02:50:33;;;;;;;24.52;15.77;;;;;;;-144.73;100.00;54547.28;5052090;28;20100;-70
2023/09/24 02:53:02;;;;;;;27.05;14.82;;;;;;;-144.73;100.00;54541.13;5052512;28;20029;-70
2023/09/24 02:55:29;;;;;;;29.55;16.23;;;;;;;-144.73;100.00;54555.47;5051372;28;20392;-69
2023/09/24 02:57:54;;;;;;;26.80;15.45;;;;;;;-144.73;100.00;54559.59;5069107;28;20147;-70
2023/09/24 03:00:26;;;;;;;28.30;16.30;;;;;;;-144.73;100.00;54563.69;5053189;28;20523;-70
2023/09/24 03:02:58;;;;;;;30.83;17.05;;;;;;;-144.73;100.00;54526.75;5068780;28;20024;-70
2023/09/24 03:05:28;;;;;;;30.25;15.30;;;;;;;-144.73;100.00;54555.47;5052519;28;20094;-70
2023/09/24 03:07:55;;;;;;;31.13;16.05;;;;;;;-144.73;100.00;54539.06;5051816;28;20067;-70
2023/09/24 03:10:21;;;;;;;21.70;14.70;;;;;;;-144.73;100.00;54502.13;5052552;28;20048;-70
2023/09/24 03:12:48;;;;;;;25.55;14.82;;;;;;;-144.73;100.00;54543.16;5068412;28;20025;-70
2023/09/24 03:15:14;;;;;;;26.80;15.15;;;;;;;-144.73;100.00;54528.81;5051488;28;20033;-70
2023/09/24 03:17:41;;;;;;;23.58;14.63;;;;;;;-144.73;100.00;54526.75;5051894;28;20027;-70
2023/09/24 03:20:41;;;;;;;31.90;15.63;;;;;;;-144.73;100.00;54539.06;5052307;28;20049;-70
2023/09/24 03:23:08;;;;;;;24.88;13.57;;;;;;;-144.73;100.00;54557.53;5068696;28;20040;-70
2023/09/24 03:25:34;;;;;;;22.23;14.30;;;;;;;-144.73;100.00;54549.31;5070346;28;20032;-70
2023/09/24 03:28:03;;;;;;;28.13;14.68;;;;;;;-144.73;100.00;54539.06;5053702;28;20081;-70
2023/09/24 03:30:28;;;;;;;25.60;15.18;;;;;;;-144.73;100.00;54545.22;5054187;28;20037;-70
2023/09/24 03:32:55;;;;;;;26.25;13.15;;;;;;;-144.73;100.00;54510.31;5072262;28;20081;-69
2023/09/24 03:35:23;;;;;;;30.60;14.70;;;;;;;-144.73;100.00;54514.44;5071652;28;20032;-70
2023/09/24 03:37:50;;;;;;;25.85;15.35;;;;;;;-144.73;100.00;54559.59;5054916;28;20024;-70
2023/09/24 03:40:21;;;;;;;30.65;14.77;;;;;;;-144.73;100.00;54559.59;5071565;28;20104;-69
2023/09/24 03:42:49;;;;;;;21.60;13.95;;;;;;;-144.73;100.00;54530.84;5072003;28;20027;-70
2023/09/24 03:45:16;;;;;;;25.08;14.73;;;;;;;-144.73;100.00;54489.81;5070576;28;20094;-70
2023/09/24 03:47:43;;;;;;;34.53;16.27;;;;;;;-144.73;100.00;54549.31;5071965;28;20024;-70
2023/09/24 03:50:13;;;;;;;32.35;16.98;;;;;;;-144.73;100.00;54571.91;5053568;28;20037;-69
2023/09/24 03:52:41;;;;;;;27.73;14.68;;;;;;;-144.73;100.00;54506.22;5071863;28;20039;-69
2023/09/24 03:55:07;;;;;;;25.27;13.90;;;;;;;-144.73;100.00;54547.28;5071149;28;20032;-69
2023/09/24 03:57:32;;;;;;;28.40;16.15;;;;;;;-144.73;100.00;54604.75;5053695;28;20074;-70
2023/09/24 03:59:58;;;;;;;22.15;13.00;;;;;;;-144.73;100.00;54506.22;5053356;28;20039;-69
2023/09/24 04:02:26;;;;;;;27.27;14.57;;;;;;;-144.73;100.00;54565.75;5053784;28;20031;-70
2023/09/24 04:04:52;;;;;;;32.00;17.10;;;;;;;-144.73;100.00;54553.44;5053689;28;20033;-70
2023/09/24 04:07:17;;;;;;;22.40;12.32;;;;;;;-144.73;100.00;54539.06;5053835;28;20050;-69
2023/09/24 04:09:43;;;;;;;27.45;14.05;;;;;;;-144.73;100.00;54516.47;5069911;28;20060;-70
2023/09/24 04:12:09;;;;;;;27.35;14.40;;;;;;;-144.73;100.00;54520.59;5070834;28;20029;-70
2023/09/24 04:14:35;;;;;;;27.02;13.80;;;;;;;-144.73;100.00;54555.47;5053677;28;20024;-69
2023/09/24 04:17:02;;;;;;;21.20;13.60;;;;;;;-144.73;100.00;54567.81;5053537;28;20035;-69
2023/09/24 04:19:29;;;;;;;32.25;15.75;;;;;;;-144.73;100.00;54559.59;5053951;28;20108;-69
2023/09/24 04:21:54;;;;;;;19.05;12.50;;;;;;;-144.73;100.00;54555.47;5054361;28;20031;-69
2023/09/24 04:24:23;;;;;;;26.15;13.98;;;;;;;-144.73;100.00;54543.16;5053695;28;20028;-70
2023/09/24 04:26:50;;;;;;;29.08;14.57;;;;;;;-144.73;100.00;54576.00;5053956;28;20021;-70
2023/09/24 04:29:16;;;;;;;26.33;12.65;;;;;;;-144.73;100.00;54522.63;5053184;28;20035;-70
2023/09/24 04:31:44;;;;;;;19.50;11.63;;;;;;;-144.73;100.00;54551.38;5070232;28;20024;-70
2023/09/24 04:34:12;;;;;;;24.42;12.30;;;;;;;-144.73;100.00;54543.16;5071646;28;20032;-70
2023/09/24 04:36:39;;;;;;;25.92;13.00;;;;;;;-144.73;100.00;54518.53;5053882;28;20047;-70
2023/09/24 04:39:05;;;;;;;26.50;13.65;;;;;;;-144.73;100.00;54547.28;5070971;28;20028;-70
2023/09/24 04:41:31;;;;;;;24.25;14.18;;;;;;;-144.73;100.00;54543.16;5070349;28;20082;-70
2023/09/24 04:43:56;;;;;;;34.30;17.90;;;;;;;-144.73;100.00;54563.69;5070961;28;20044;-71
2023/09/24 04:46:22;;;;;;;37.88;17.50;;;;;;;-144.73;100.00;54596.53;5054075;28;20044;-70
2023/09/24 04:48:48;;;;;;;43.00;17.67;;;;;;;-144.73;100.00;54547.28;5071409;28;20479;-70
2023/09/24 04:51:13;;;;;;;31.75;17.15;;;;;;;-144.73;100.00;54539.06;5071323;28;20410;-69
2023/09/24 04:53:39;;;;;;;31.50;15.43;;;;;;;-144.73;100.00;54551.38;5069462;28;20483;-70
2023/09/24 04:56:08;;;;;;;43.42;19.63;;;;;;;-144.73;100.00;54576.00;5053738;28;20017;-70
2023/09/24 04:58:33;;;;;;;23.88;15.00;;;;;;;-144.73;100.00;54543.16;5043852;28;20017;-70
2023/09/24 05:01:05;;;;;;;26.10;15.10;;;;;;;-144.73;100.00;54543.16;5033485;28;20037;-70
2023/09/24 05:03:32;;;;;;;32.83;17.02;;;;;;;-144.73;100.00;54600.63;5034215;28;20610;-70
2023/09/24 05:05:57;;;;;;;28.50;14.80;;;;;;;-144.73;100.00;54555.47;5033099;28;20085;-70
2023/09/24 05:08:23;;;;;;;27.05;13.73;;;;;;;-144.73;100.00;54543.16;5033316;28;20112;-70
2023/09/24 05:10:49;;;;;;;32.25;16.75;;;;;;;-144.73;100.00;54580.13;5032405;28;20044;-70
2023/09/24 05:13:15;;;;;;;26.92;14.80;;;;;;;-144.73;100.00;54563.69;5033090;28;20021;-70
2023/09/24 05:15:40;;;;;;;28.05;12.90;;;;;;;-144.73;100.00;54559.59;5032781;28;20037;-70
2023/09/24 05:18:06;;;;;;;23.95;14.50;;;;;;;-144.73;100.00;54539.06;5033110;28;20112;-70
2023/09/24 05:20:32;;;;;;;32.53;16.10;;;;;;;-144.73;100.00;54549.31;5032738;28;20037;-70
2023/09/24 05:22:57;;;;;;;36.20;15.35;;;;;;;-144.73;100.00;54539.06;5050882;28;20056;-70
2023/09/24 05:25:22;;;;;;;43.63;18.92;;;;;;;-144.73;100.00;54522.63;5032850;28;20086;-70
2023/09/24 05:27:48;;;;;;;47.25;19.17;;;;;;;-144.73;100.00;54543.16;5033306;28;20036;-70
2023/09/24 05:30:13;;;;;;;29.63;17.35;;;;;;;-144.73;100.00;54506.22;5032287;28;20124;-70
2023/09/24 05:32:39;;;;;;;37.53;17.13;;;;;;;-144.73;100.00;54569.84;5051071;28;20032;-70
2023/09/24 05:35:05;;;;;;;34.33;16.77;;;;;;;-144.73;100.00;54555.47;5032914;28;20511;-70
2023/09/24 05:37:30;;;;;;;33.83;16.60;;;;;;;-144.73;100.00;54567.81;5033039;28;20028;-70
2023/09/24 05:39:56;;;;;;;48.42;22.02;;;;;;;-144.73;100.00;54584.22;5032925;28;20037;-70
2023/09/24 05:42:21;;;;;;;34.85;17.85;;;;;;;-144.73;100.00;54547.28;5033042;28;20017;-70
2023/09/24 05:44:46;;;;;;;41.70;17.50;;;;;;;-144.73;100.00;54586.28;5032486;28;20060;-70
2023/09/24 05:47:12;;;;;;;33.78;16.55;;;;;;;-144.73;100.00;54588.31;5047178;28;20027;-70
2023/09/24 05:49:38;;;;;;;40.58;16.52;;;;;;;-144.73;100.00;54555.47;5052961;28;20036;-70
2023/09/24 05:52:03;;;;;;;40.83;16.30;;;;;;;-144.73;100.00;54539.06;5071853;28;20115;-70
2023/09/24 05:54:29;;;;;;;36.00;18.58;;;;;;;-144.73;100.00;54547.28;5056140;28;20028;-70
2023/09/24 05:56:54;;;;;;;44.95;19.77;;;;;;;-144.73;100.00;54576.00;5074106;28;20028;-70
2023/09/24 05:59:20;;;;;;;36.03;18.42;;;;;;;-144.73;100.00;54549.31;5072900;28;20032;-70
2023/09/24 06:01:45;;;;;;;33.65;18.08;;;;;;;-144.73;100.00;54530.84;5073473;28;20026;-70
2023/09/24 06:04:10;;;;;;;40.17;18.42;;;;;;;-144.73;100.00;54571.91;5073611;28;20036;-70
2023/09/24 06:06:37;;;;;;;36.05;19.33;;;;;;;-144.73;100.00;54512.38;5055676;28;20021;-70
2023/09/24 06:09:08;;;;;;;33.38;19.33;;;;;;;-144.73;100.00;54557.53;5056090;28;20063;-69
2023/09/24 06:11:35;;;;;;;42.13;20.02;;;;;;;-144.73;100.00;54576.00;5055851;28;20025;-70
2023/09/24 06:14:03;;;;;;;39.17;20.25;;;;;;;-144.73;100.00;54539.06;5055648;28;20046;-70
2023/09/24 06:16:29;;;;;;;35.60;18.27;;;;;;;-144.73;100.00;54502.13;5072796;28;20025;-70
2023/09/24 06:18:54;;;;;;;39.45;20.02;;;;;;;-144.73;100.00;54551.38;5055386;28;20024;-69
2023/09/24 06:21:20;;;;;;;38.15;20.48;;;;;;;-144.73;100.00;54514.44;5056399;28;20071;-70
2023/09/24 06:23:45;;;;;;;34.50;18.77;;;;;;;-144.73;100.00;54543.16;5042886;28;20036;-70
2023/09/24 06:26:10;;;;;;;50.25;24.27;;;;;;;-144.73;100.00;54539.06;5036045;28;20036;-70
2023/09/24 06:28:36;;;;;;;43.42;20.75;;;;;;;-144.73;100.00;54522.63;5036100;28;20083;-70
2023/09/24 06:31:03;;;;;;;42.00;21.58;;;;;;;-144.73;100.00;54576.00;5035629;28;20117;-70
2023/09/24 06:33:29;;;;;;;40.97;21.20;;;;;;;-144.73;100.00;54563.69;5035826;28;20111;-70
2023/09/24 06:35:56;;;;;;;37.50;19.98;;;;;;;-144.73;100.00;54557.53;5035036;28;20480;-70
2023/09/24 06:38:21;;;;;;;44.20;21.70;;;;;;;-144.73;100.00;54559.59;5036033;28;20178;-70
2023/09/24 06:41:03;;;;;;;71.93;25.00;;;;;;;-144.73;100.00;54528.81;5052588;28;20112;-70
2023/09/24 06:43:33;;;;;;;41.53;22.08;;;;;;;-144.73;100.00;54530.84;5052634;28;20357;-70
2023/09/24 06:46:03;;;;;;;63.47;24.70;;;;;;;-144.73;100.00;54555.47;5035000;28;20060;-70
2023/09/24 06:48:29;;;;;;;54.65;25.58;;;;;;;-144.73;100.00;54563.69;5052512;28;20064;-71
2023/09/24 06:50:54;;;;;;;82.15;23.85;;;;;;;-144.73;100.00;54543.16;5035011;28;20056;-69
2023/09/24 06:53:22;;;;;;;51.00;23.60;;;;;;;-144.73;100.00;54565.75;5053184;28;20033;-70
2023/09/24 06:55:48;;;;;;;115.72;27.30;;;;;;;-144.73;100.00;54549.31;5071007;28;20050;-70
2023/09/24 06:58:13;;;;;;;111.35;27.00;;;;;;;-144.73;100.00;54543.16;5055565;28;20032;-71
2023/09/24 07:00:39;;;;;;;106.38;28.02;;;;;;;-144.73;100.00;54543.16;5071735;28;20503;-70
2023/09/24 07:03:05;;;;;;;74.88;27.83;;;;;;;-144.73;100.00;54559.59;5065443;28;20052;-70
2023/09/24 07:05:31;;;;;;;83.38;28.08;;;;;;;-144.73;100.00;54561.63;5053462;28;20033;-71
2023/09/24 07:07:57;;;;;;;71.75;24.63;;;;;;;-144.73;100.00;54576.00;5036516;28;20032;-70
2023/09/24 07:10:23;;;;;;;140.23;30.27;;;;;;;-144.73;100.00;54604.75;5054374;28;20087;-70
2023/09/24 07:12:48;;;;;;;102.45;27.50;;;;;;;-144.73;100.00;54576.00;5055688;28;20025;-70
2023/09/24 07:15:14;;;;;;;83.80;25.00;;;;;;;-144.73;100.00;54543.16;5053046;28;20422;-71
2023/09/24 07:17:39;;;;;;;135.25;26.85;;;;;;;-144.73;100.00;54543.16;5052343;28;20112;-70
2023/09/24 07:20:07;;;;;;;67.82;27.40;;;;;;;-144.73;100.00;54555.47;5051812;28;20113;-71
2023/09/24 07:22:32;;;;;;;55.88;24.45;;;;;;;-144.73;100.00;54547.28;5052900;28;20032;-71
2023/09/24 07:24:57;;;;;;;144.63;31.23;;;;;;;-144.73;100.00;54576.00;5051327;28;20033;-70
2023/09/24 07:27:24;;;;;;;85.70;29.98;;;;;;;-144.73;100.00;54526.75;5057562;28;20039;-70
2023/09/24 07:29:50;;;;;;;123.10;32.05;;;;;;;-144.73;100.00;54522.63;5071090;28;20137;-70
2023/09/24 07:32:15;;;;;;;106.85;32.60;;;;;;;-144.73;100.00;54559.59;5055445;28;20468;-70
2023/09/24 07:34:41;;;;;;;69.68;29.30;;;;;;;-144.73;100.00;54571.91;5054623;28;20056;-70
2023/09/24 07:37:08;;;;;;;60.60;27.70;;;;;;;-144.73;100.00;54547.28;5039631;28;20025;-70
2023/09/24 07:39:34;;;;;;;52.30;25.13;;;;;;;-144.73;100.00;54539.06;5052486;28;20029;-70
2023/09/24 07:42:00;;;;;;;58.85;26.77;;;;;;;-144.73;100.00;54530.84;5051747;28;20027;-70
2023/09/24 07:44:26;;;;;;;51.17;27.00;;;;;;;-144.73;100.00;54539.06;5035204;28;20108;-69
2023/09/24 07:46:55;;;;;;;59.22;29.40;;;;;;;-144.73;100.00;54547.28;5053644;28;20093;-69
2023/09/24 07:49:23;;;;;;;54.47;28.73;;;;;;;-144.73;100.00;54563.69;5036363;28;20044;-70
2023/09/24 07:51:48;;;;;;;44.00;24.75;;;;;;;-144.73;100.00;54563.69;5036195;28;20021;-69
2023/09/24 07:54:15;;;;;;;34.05;20.45;;;;;;;-144.73;100.00;54571.91;5065363;28;20040;-69
2023/09/24 07:56:42;;;;;;;35.67;19.40;;;;;;;-144.73;100.00;54539.06;5054943;28;20054;-70
2023/09/24 07:59:09;;;;;;;36.33;19.83;;;;;;;-144.73;100.00;54522.63;5072164;28;20029;-70
2023/09/24 08:01:35;;;;;;;29.42;16.83;;;;;;;-144.73;100.00;54567.81;5055441;28;20024;-70
2023/09/24 08:04:00;;;;;;;28.27;17.90;;;;;;;-144.73;100.00;54565.75;5051835;28;20112;-70
2023/09/24 08:06:28;;;;;;;27.35;17.33;;;;;;;-144.73;100.00;54559.59;5053501;28;20020;-70
2023/09/24 08:08:54;;;;;;;27.70;16.48;;;;;;;-144.73;100.00;54547.28;5036879;28;20511;-70
2023/09/24 08:11:19;;;;;;;21.38;14.45;;;;;;;-144.73;100.00;54547.28;5053103;28;20048;-70
2023/09/24 08:13:45;;;;;;;22.33;14.23;;;;;;;-144.73;100.00;54547.28;5033572;28;20083;-70
2023/09/24 08:16:10;;;;;;;21.58;13.50;;;;;;;-144.73;100.00;54559.59;5034166;28;20151;-70
2023/09/24 08:18:36;;;;;;;19.00;13.85;;;;;;;-144.73;100.00;54506.22;5034700;28;20017;-71
2023/09/24 08:21:01;;;;;;;17.85;12.32;;;;;;;-144.73;100.00;54530.84;5033264;28;20657;-70
2023/09/24 08:23:27;;;;;;;22.00;13.32;;;;;;;-144.73;100.00;54539.06;5042206;28;20175;-70
2023/09/24 08:25:52;;;;;;;19.52;13.25;;;;;;;-144.73;100.00;54539.06;5033950;28;20116;-71
2023/09/24 08:28:18;;;;;;;26.35;15.88;;;;;;;-144.73;100.00;54551.38;5038917;28;20115;-71
2023/09/24 08:30:44;;;;;;;17.67;13.50;;;;;;;-144.73;100.00;54539.06;5054022;28;20030;-71
2023/09/24 08:33:09;;;;;;;21.10;13.02;;;;;;;-144.73;100.00;54584.22;5053993;28;20028;-71
2023/09/24 08:35:36;;;;;;;27.15;13.48;;;;;;;-144.73;100.00;54526.75;5066525;28;20037;-70
2023/09/24 08:38:02;;;;;;;19.17;11.63;;;;;;;-144.73;100.00;54553.44;5033969;28;20025;-71
2023/09/24 08:40:30;;;;;;;19.85;10.88;;;;;;;-144.73;100.00;54547.28;5033324;28;20033;-71
2023/09/24 08:42:56;;;;;;;18.38;10.27;;;;;;;-144.73;100.00;54567.81;5052698;28;20017;-70
2023/09/24 08:45:26;;;;;;;20.48;9.48;;;;;;;-144.73;100.00;54539.06;5033579;28;20044;-70
2023/09/24 08:47:52;;;;;;;13.68;8.80;;;;;;;-144.73;100.00;54526.75;5034129;28;20060;-71
2023/09/24 08:50:18;;;;;;;15.20;9.13;;;;;;;-144.73;100.00;54549.31;5033546;28;20041;-71
2023/09/24 08:52:45;;;;;;;11.07;8.25;;;;;;;-144.73;100.00;54563.69;5050885;28;20112;-71
2023/09/24 08:55:14;;;;;;;15.40;8.30;;;;;;;-144.73;100.00;54539.06;5033775;28;20064;-71
2023/09/24 08:57:42;;;;;;;14.27;7.32;;;;;;;-144.73;100.00;54510.31;5034699;28;20448;-71
2023/09/24 09:00:10;;;;;;;11.23;6.20;;;;;;;-144.73;100.00;54563.69;5033766;28;20035;-71
2023/09/24 09:02:36;;;;;;;12.32;5.88;;;;;;;-144.73;100.00;54555.47;5033795;28;20017;-70
2023/09/24 09:05:09;;;;;;;12.93;6.57;;;;;;;-144.73;100.00;54524.69;5035606;28;20021;-71
2023/09/24 09:07:35;;;;;;;13.10;6.63;;;;;;;-144.73;100.00;54502.13;5045551;28;20046;-72
2023/09/24 09:10:03;;;;;;;13.70;5.93;;;;;;;-144.73;100.00;54518.53;5043057;28;20055;-71
2023/09/24 09:12:29;;;;;;;13.38;5.70;;;;;;;-144.73;100.00;54522.63;5068038;28;20052;-72
2023/09/24 09:14:55;;;;;;;16.10;7.40;;;;;;;-144.73;100.00;54559.59;5036638;28;20037;-71
2023/09/24 09:17:21;;;;;;;16.60;7.47;;;;;;;-144.73;100.00;54555.47;5056235;28;20033;-71
2023/09/24 09:19:56;;;;;;;15.80;6.97;;;;;;;-144.73;100.00;54510.31;5033376;28;20034;-71
2023/09/24 09:22:29;;;;;;;12.93;6.47;;;;;;;-144.73;100.00;54547.28;5036589;28;20100;-70
2023/09/24 09:25:09;;;;;;;19.95;7.47;;;;;;;-144.73;100.00;54498.00;5035272;28;20373;-70
2023/09/24 09:27:42;;;;;;;14.43;6.55;;;;;;;-144.73;100.00;54510.31;5037231;28;20044;-70
2023/09/24 09:30:17;;;;;;;14.98;7.38;;;;;;;-144.73;100.00;54551.38;5036475;28;20033;-71
2023/09/24 09:32:47;;;;;;;15.00;8.05;;;;;;;-144.73;100.00;54485.69;5064423;28;20055;-71
2023/09/24 09:35:16;;;;;;;10.43;6.43;;;;;;;-144.73;100.00;54491.84;5036506;28;20041;-70
2023/09/24 09:37:46;;;;;;;13.90;6.28;;;;;;;-144.73;100.00;54518.53;5037894;28;20460;-70
2023/09/24 09:40:12;;;;;;;12.45;6.43;;;;;;;-144.73;100.00;54502.13;5065065;28;20044;-71
2023/09/24 09:42:38;;;;;;;12.57;6.50;;;;;;;-144.73;100.00;54493.91;5045416;28;20025;-70
2023/09/24 09:45:08;;;;;;;12.10;7.60;;;;;;;-144.73;100.00;54530.84;5039007;28;20056;-70
2023/09/24 09:47:37;;;;;;;16.33;8.75;;;;;;;-144.73;100.00;54539.06;5050984;28;20024;-70
2023/09/24 09:50:04;;;;;;;18.50;8.13;;;;;;;-144.73;100.00;54530.84;5068038;28;20037;-70
2023/09/24 09:52:40;;;;;;;12.07;7.43;;;;;;;-144.73;100.00;54547.28;5036913;28;20028;-70
2023/09/24 09:55:06;;;;;;;10.30;6.75;;;;;;;-144.73;100.00;54498.00;5036680;28;20029;-71
2023/09/24 09:57:34;;;;;;;12.60;6.53;;;;;;;-144.73;100.00;54522.63;5050256;28;20024;-70
2023/09/24 10:00:01;;;;;;;9.95;5.75;;;;;;;-144.73;100.00;54545.22;5067768;28;20033;-70
2023/09/24 10:02:29;;;;;;;8.43;5.35;;;;;;;-144.73;100.00;54510.31;5037575;28;20073;-70
2023/09/24 10:04:57;;;;;;;12.77;5.30;;;;;;;-144.73;100.00;54539.06;5053973;28;20115;-72
2023/09/24 10:07:23;;;;;;;10.32;4.95;;;;;;;-144.73;100.00;54518.53;5062938;28;20020;-70
2023/09/24 10:09:49;;;;;;;12.43;5.43;;;;;;;-144.73;100.00;54493.91;5053191;28;20037;-70
2023/09/24 10:12:33;;;;;;;12.77;4.97;;;;;;;-144.73;100.00;54493.91;5057001;28;20020;-71
2023/09/24 10:14:58;;;;;;;10.40;4.38;;;;;;;-144.73;100.00;54604.75;5046399;28;20040;-71
2023/09/24 10:17:25;;;;;;;9.35;4.00;;;;;;;-144.73;100.00;54567.81;5054290;28;20025;-70
2023/09/24 10:19:55;;;;;;;7.57;3.78;;;;;;;-144.73;100.00;54502.13;5053519;28;20035;-71
2023/09/24 10:22:29;;;;;;;6.88;3.60;;;;;;;-144.73;100.00;54514.44;5045642;28;20498;-70
2023/09/24 10:24:55;;;;;;;9.10;3.60;;;;;;;-144.73;100.00;54514.44;5038928;28;20094;-71
2023/09/24 10:27:30;;;;;;;12.60;3.92;;;;;;;-144.73;100.00;54547.28;5036496;28;20028;-71
2023/09/24 10:29:55;;;;;;;14.15;3.47;;;;;;;-144.73;100.00;54522.63;5035551;28;20079;-71
2023/09/24 10:32:22;;;;;;;6.47;2.60;;;;;;;-144.73;100.00;54475.44;5039303;28;20032;-71
2023/09/24 10:34:50;;;;;;;9.80;3.28;;;;;;;-144.73;100.00;54502.13;5035428;28;20083;-71
2023/09/24 10:37:18;;;;;;;12.43;2.88;;;;;;;-144.73;100.00;54479.53;5035281;28;20036;-71
2023/09/24 10:39:59;;;;;;;11.85;3.30;;;;;;;-144.73;100.00;54504.16;5059687;28;20094;-71
2023/09/24 10:43:04;;;;;;;12.02;4.00;;;;;;;-144.73;100.00;54530.84;5049506;28;20132;-71
2023/09/24 10:45:30;;;;;;;15.10;2.63;;;;;;;-144.73;100.00;54485.69;5049893;28;20036;-71
2023/09/24 10:48:02;;;;;;;10.07;2.50;;;;;;;-144.73;100.00;54512.38;5043280;28;20028;-71
2023/09/24 10:50:27;;;;;;;8.30;2.40;;;;;;;-144.73;100.00;54502.13;5058143;28;20074;-71
2023/09/24 10:53:00;;;;;;;8.13;2.22;;;;;;;-144.73;100.00;54549.31;5047722;28;20032;-71
2023/09/24 10:55:35;;;;;;;19.23;3.97;;;;;;;-144.73;100.00;54493.91;5052841;28;20029;-71